createdAt,value
2023-04-15T00:00:58.540Z,2.83
2023-04-15T00:03:25.646Z,3.17
2023-04-15T00:05:52.725Z,3.10
2023-04-15T00:08:20.410Z,2.85
2023-04-15T00:10:47.052Z,2.72
2023-04-15T00:13:13.615Z,3.35
2023-04-15T00:15:40.146Z,3.33
2023-04-15T00:18:08.216Z,3.55
2023-04-15T00:20:35.607Z,3.28
2023-04-15T00:23:03.936Z,5.40
2023-04-15T00:25:30.758Z,4.38
2023-04-15T00:27:57.342Z,3.00
2023-04-15T00:30:24.119Z,3.47
2023-04-15T00:32:50.852Z,3.75
2023-04-15T00:35:21.728Z,5.35
2023-04-15T00:37:51.345Z,4.03
2023-04-15T00:40:19.604Z,4.10
2023-04-15T00:42:46.175Z,4.20
2023-04-15T00:45:14.037Z,2.45
2023-04-15T00:47:44.739Z,3.28
2023-04-15T00:50:12.612Z,3.50
2023-04-15T00:52:39.870Z,3.25
2023-04-15T00:55:07.192Z,3.40
2023-04-15T00:57:33.857Z,3.83
2023-04-15T01:00:01.110Z,3.75
2023-04-15T01:02:28.103Z,3.95
2023-04-15T01:04:56.984Z,4.13
2023-04-15T01:07:24.064Z,3.53
2023-04-15T01:09:51.145Z,3.28
2023-04-15T01:12:17.929Z,2.42
2023-04-15T01:14:44.527Z,2.55
2023-04-15T01:17:11.233Z,3.75
2023-04-15T01:19:40.162Z,2.80
2023-04-15T01:22:07.852Z,2.92
2023-04-15T01:24:35.896Z,3.28
2023-04-15T01:27:02.488Z,4.35
2023-04-15T01:29:29.538Z,3.22
2023-04-15T01:31:56.921Z,3.20
2023-04-15T01:34:26.308Z,3.05
2023-04-15T01:36:54.030Z,3.30
2023-04-15T01:39:21.783Z,3.05
2023-04-15T01:41:48.590Z,3.50
2023-04-15T01:44:16.487Z,3.13
2023-04-15T01:46:43.098Z,2.92
2023-04-15T01:49:09.709Z,3.25
2023-04-15T01:51:36.276Z,4.28
2023-04-15T01:54:02.922Z,2.63
2023-04-15T01:56:30.060Z,2.65
2023-04-15T01:58:56.942Z,2.65
2023-04-15T02:01:23.707Z,2.33
2023-04-15T02:03:50.710Z,2.33
2023-04-15T02:06:18.399Z,3.17
2023-04-15T02:08:45.156Z,2.70
2023-04-15T02:11:11.805Z,3.55
2023-04-15T02:13:38.443Z,3.38
2023-04-15T02:16:05.413Z,3.60
2023-04-15T02:18:31.994Z,3.25
2023-04-15T02:20:58.919Z,3.50
2023-04-15T02:23:25.842Z,3.05
2023-04-15T02:25:53.401Z,3.80
2023-04-15T02:28:21.556Z,3.50
2023-04-15T02:30:53.515Z,3.20
2023-04-15T02:33:21.700Z,2.72
2023-04-15T02:35:48.350Z,3.72
2023-04-15T02:38:16.779Z,2.92
2023-04-15T02:40:43.708Z,3.28
2023-04-15T02:43:10.643Z,3.08
2023-04-15T02:45:37.310Z,4.10
2023-04-15T02:48:06.622Z,3.63
2023-04-15T02:50:33.511Z,2.30
2023-04-15T02:53:01.584Z,2.97
2023-04-15T02:55:29.223Z,2.67
2023-04-15T02:57:56.129Z,3.03
2023-04-15T03:00:25.192Z,2.58
2023-04-15T03:02:56.397Z,4.28
2023-04-15T03:07:53.125Z,2.65
2023-04-15T03:10:21.210Z,3.25
2023-04-15T03:12:47.946Z,3.33
2023-04-15T03:15:18.169Z,3.03
2023-04-15T03:17:49.586Z,3.30
2023-04-15T03:20:17.006Z,2.50
2023-04-15T03:22:43.678Z,3.25
2023-04-15T03:25:10.650Z,3.25
2023-04-15T03:27:38.418Z,2.92
2023-04-15T03:30:06.648Z,2.17
2023-04-15T03:32:35.700Z,2.80
2023-04-15T03:35:02.405Z,3.83
2023-04-15T03:37:29.256Z,3.17
2023-04-15T03:39:55.947Z,3.67
2023-04-15T03:42:22.694Z,2.95
2023-04-15T03:44:49.361Z,2.20
2023-04-15T03:47:16.356Z,2.50
2023-04-15T03:49:42.927Z,3.58
2023-04-15T03:52:09.570Z,2.22
2023-04-15T03:54:36.232Z,2.00
2023-04-15T03:57:03.368Z,4.20
2023-04-15T03:59:30.010Z,2.83
2023-04-15T04:01:56.673Z,2.47
2023-04-15T04:04:23.519Z,2.83
2023-04-15T04:06:50.262Z,2.35
2023-04-15T04:09:16.965Z,2.53
2023-04-15T04:11:43.547Z,3.05
2023-04-15T04:14:10.512Z,3.03
2023-04-15T04:16:37.095Z,2.85
2023-04-15T04:19:03.799Z,3.22
2023-04-15T04:21:30.777Z,2.55
2023-04-15T04:23:57.351Z,2.10
2023-04-15T04:26:23.926Z,1.98
2023-04-15T04:28:50.704Z,2.40
2023-04-15T04:31:17.306Z,2.70
2023-04-15T04:33:43.857Z,2.17
2023-04-15T04:36:10.467Z,3.05
2023-04-15T04:38:37.029Z,4.63
2023-04-15T04:41:03.637Z,1.92
2023-04-15T04:43:30.435Z,2.00
2023-04-15T04:45:57.255Z,1.73
2023-04-15T04:48:23.888Z,2.78
2023-04-15T04:50:50.457Z,2.03
2023-04-15T04:53:18.024Z,2.38
2023-04-15T04:55:44.571Z,2.97
2023-04-15T04:58:11.621Z,2.10
2023-04-15T05:00:38.462Z,2.80
2023-04-15T05:03:05.322Z,2.53
2023-04-15T05:05:32.052Z,1.98
2023-04-15T05:07:58.962Z,2.85
2023-04-15T05:10:25.682Z,2.90
2023-04-15T05:12:52.591Z,2.63
2023-04-15T05:15:19.180Z,3.22
2023-04-15T05:17:45.794Z,2.33
2023-04-15T05:20:12.758Z,2.55
2023-04-15T05:22:39.358Z,2.88
2023-04-15T05:25:06.102Z,2.35
2023-04-15T05:27:32.690Z,3.25
2023-04-15T05:29:59.344Z,3.00
2023-04-15T05:32:26.321Z,2.63
2023-04-15T05:34:52.914Z,3.00
2023-04-15T05:37:20.934Z,2.47
2023-04-15T05:39:48.304Z,2.42
2023-04-15T05:42:14.849Z,2.35
2023-04-15T05:44:41.649Z,2.20
2023-04-15T05:47:09.661Z,2.45
2023-04-15T05:49:36.424Z,1.98
2023-04-15T05:52:03.231Z,2.28
2023-04-15T05:54:30.330Z,2.38
2023-04-15T05:56:57.649Z,2.60
2023-04-15T05:59:24.219Z,2.78
2023-04-15T06:01:52.099Z,1.92
2023-04-15T06:04:18.873Z,2.40
2023-04-15T06:06:46.180Z,2.00
2023-04-15T06:09:13.045Z,2.47
2023-04-15T06:11:41.273Z,2.03
2023-04-15T06:14:08.231Z,2.90
2023-04-15T06:16:36.532Z,2.83
2023-04-15T06:19:03.663Z,2.72
2023-04-15T06:21:31.146Z,2.85
2023-04-15T06:23:59.534Z,3.03
2023-04-15T06:26:26.545Z,2.33
2023-04-15T06:28:53.139Z,3.03
2023-04-15T06:31:19.989Z,2.80
2023-04-15T06:33:46.657Z,3.03
2023-04-15T06:36:13.251Z,4.68
2023-04-15T06:38:39.844Z,7.00
2023-04-15T06:41:06.418Z,4.40
2023-04-15T06:43:32.986Z,4.18
2023-04-15T06:45:59.641Z,4.13
2023-04-15T06:48:26.302Z,3.03
2023-04-15T06:50:52.861Z,3.67
2023-04-15T06:53:19.717Z,4.80
2023-04-15T06:55:46.325Z,3.45
2023-04-15T06:58:12.916Z,3.97
2023-04-15T07:00:39.606Z,3.45
2023-04-15T07:03:06.260Z,5.45
2023-04-15T07:05:33.474Z,3.78
2023-04-15T07:08:00.381Z,3.58
2023-04-15T07:10:26.960Z,4.05
2023-04-15T07:12:53.588Z,3.35
2023-04-15T07:15:20.357Z,3.65
2023-04-15T07:17:46.957Z,3.55
2023-04-15T07:20:13.920Z,4.35
2023-04-15T07:22:40.743Z,3.03
2023-04-15T07:25:07.896Z,2.45
2023-04-15T07:27:34.465Z,2.63
2023-04-15T07:30:01.058Z,2.97
2023-04-15T07:32:27.735Z,2.95
2023-04-15T07:34:54.630Z,3.20
2023-04-15T07:37:21.262Z,2.60
2023-04-15T07:39:48.021Z,3.10
2023-04-15T07:42:15.212Z,3.63
2023-04-15T07:44:41.994Z,4.47
2023-04-15T07:47:08.600Z,4.38
2023-04-15T07:49:35.172Z,4.00
2023-04-15T07:52:01.909Z,3.88
2023-04-15T07:54:28.540Z,4.38
2023-04-15T07:56:56.009Z,5.32
2023-04-15T07:59:22.926Z,4.82
2023-04-15T08:01:50.272Z,5.60
2023-04-15T08:04:17.183Z,6.03
2023-04-15T08:06:44.019Z,3.53
2023-04-15T08:09:11.039Z,3.72
2023-04-15T08:11:37.627Z,4.68
2023-04-15T08:14:04.184Z,4.65
2023-04-15T08:16:30.971Z,3.65
2023-04-15T08:18:57.896Z,3.97
2023-04-15T08:21:24.965Z,2.58
2023-04-15T08:23:52.668Z,3.47
2023-04-15T08:26:20.097Z,3.22
2023-04-15T08:28:47.456Z,2.35
2023-04-15T08:31:15.579Z,2.65
2023-04-15T08:33:42.547Z,2.42
2023-04-15T08:36:09.332Z,1.67
2023-04-15T08:38:36.361Z,2.42
2023-04-15T08:41:06.267Z,2.40
2023-04-15T08:43:40.163Z,3.22
2023-04-15T08:46:07.443Z,2.13
2023-04-15T08:48:35.708Z,2.88
2023-04-15T08:51:03.048Z,2.22
2023-04-15T08:53:30.345Z,1.52
2023-04-15T08:55:58.515Z,1.80
2023-04-15T08:58:25.485Z,2.40
2023-04-15T09:00:52.072Z,1.95
2023-04-15T09:03:19.170Z,2.00
2023-04-15T09:05:45.810Z,2.03
2023-04-15T09:08:12.703Z,3.08
2023-04-15T09:10:39.530Z,2.45
2023-04-15T09:13:06.154Z,2.95
2023-04-15T09:15:33.069Z,2.20
2023-04-15T09:17:59.674Z,2.33
2023-04-15T09:20:26.373Z,2.13
2023-04-15T09:22:53.121Z,1.90
2023-04-15T09:25:22.795Z,2.20
2023-04-15T09:27:50.386Z,2.70
2023-04-15T09:30:17.441Z,2.10
2023-04-15T09:32:53.970Z,2.40
2023-04-15T09:35:21.636Z,1.65
2023-04-15T09:37:50.029Z,1.80
2023-04-15T09:40:33.106Z,1.83
2023-04-15T09:42:59.746Z,1.30
2023-04-15T09:45:29.348Z,2.17
2023-04-15T09:47:59.107Z,1.77
2023-04-15T09:50:29.574Z,1.50
2023-04-15T09:52:56.421Z,1.55
2023-04-15T09:55:23.076Z,2.15
2023-04-15T09:57:49.670Z,1.75
2023-04-15T10:00:16.504Z,1.55
2023-04-15T10:02:43.365Z,1.63
2023-04-15T10:05:15.061Z,1.80
2023-04-15T10:10:09.027Z,1.90
2023-04-15T10:12:37.769Z,1.20
2023-04-15T10:15:05.564Z,1.50
2023-04-15T10:17:37.102Z,2.05
2023-04-15T10:22:32.861Z,1.58
2023-04-15T10:25:00.832Z,1.92
2023-04-15T10:27:27.950Z,1.77
2023-04-15T10:29:54.839Z,1.73
2023-04-15T10:32:22.600Z,2.00
2023-04-15T10:34:51.406Z,1.70
2023-04-15T10:37:23.301Z,3.17
2023-04-15T10:39:50.703Z,1.98
2023-04-15T10:42:19.719Z,1.75
2023-04-15T10:44:51.815Z,1.55
2023-04-15T10:47:21.087Z,2.47
2023-04-15T10:49:50.332Z,1.33
2023-04-15T10:52:25.019Z,1.58
2023-04-15T10:55:03.370Z,1.48
2023-04-15T10:57:36.079Z,1.98
2023-04-15T11:00:16.436Z,1.98
2023-04-15T11:02:47.396Z,2.45
2023-04-15T11:05:16.131Z,1.73
2023-04-15T11:07:58.541Z,2.08
2023-04-15T11:10:25.573Z,1.88
2023-04-15T11:12:53.801Z,1.88
2023-04-15T11:15:32.455Z,2.40
2023-04-15T11:18:18.741Z,1.90
2023-04-15T11:20:47.989Z,1.80
2023-04-15T11:23:15.850Z,1.63
2023-04-15T11:25:43.933Z,2.40
2023-04-15T11:28:11.981Z,2.10
2023-04-15T11:30:39.301Z,2.20
2023-04-15T11:33:12.025Z,2.08
2023-04-15T11:35:41.025Z,2.25
2023-04-15T11:38:12.468Z,2.97
2023-04-15T11:40:39.715Z,1.98
2023-04-15T11:43:11.200Z,1.80
2023-04-15T11:48:06.865Z,2.33
2023-04-15T11:50:33.667Z,2.22
2023-04-15T11:53:07.591Z,3.22
2023-04-15T11:55:44.088Z,1.95
2023-04-15T11:58:16.470Z,2.05
2023-04-15T12:00:48.829Z,2.30
2023-04-15T12:03:24.481Z,4.13
2023-04-15T12:06:21.174Z,2.03
2023-04-15T12:08:49.098Z,2.53
2023-04-15T12:11:16.669Z,3.45
2023-04-15T12:13:47.768Z,1.90
2023-04-15T12:16:19.430Z,2.05
2023-04-15T12:19:07.707Z,2.72
2023-04-15T12:21:35.968Z,1.67
2023-04-15T12:24:04.909Z,2.85
2023-04-15T12:26:44.887Z,1.85
2023-04-15T12:29:12.590Z,2.08
2023-04-15T12:31:55.398Z,1.48
2023-04-15T12:34:30.831Z,1.85
2023-04-15T12:36:58.686Z,1.95
2023-04-15T12:39:27.658Z,2.50
2023-04-15T12:41:55.904Z,2.30
2023-04-15T12:44:24.032Z,2.25
2023-04-15T12:46:51.304Z,2.58
2023-04-15T12:49:20.852Z,1.58
2023-04-15T12:51:49.351Z,2.03
2023-04-15T12:54:17.265Z,1.95
2023-04-15T12:56:44.769Z,1.83
2023-04-15T12:59:11.516Z,1.80
2023-04-15T13:01:38.252Z,2.33
2023-04-15T13:04:05.769Z,1.70
2023-04-15T13:06:35.638Z,1.90
2023-04-15T13:09:05.649Z,1.73
2023-04-15T13:11:33.816Z,2.38
2023-04-15T13:14:02.059Z,2.47
2023-04-15T13:16:28.852Z,2.45
2023-04-15T13:18:55.560Z,3.65
2023-04-15T13:21:22.181Z,2.47
2023-04-15T13:23:50.322Z,1.95
2023-04-15T13:26:17.826Z,3.17
2023-04-15T13:28:44.707Z,1.73
2023-04-15T13:31:11.311Z,2.40
2023-04-15T13:33:37.936Z,2.53
2023-04-15T13:36:04.486Z,2.40
2023-04-15T13:38:31.077Z,3.13
2023-04-15T13:40:58.555Z,2.33
2023-04-15T13:43:25.132Z,2.20
2023-04-15T13:45:51.768Z,2.08
2023-04-15T13:48:18.418Z,2.45
2023-04-15T13:50:45.783Z,2.50
2023-04-15T13:53:12.969Z,3.25
2023-04-15T13:55:42.682Z,3.35
2023-04-15T13:58:09.795Z,3.00
2023-04-15T14:00:36.518Z,3.28
2023-04-15T14:03:03.490Z,4.50
2023-04-15T14:05:30.328Z,4.10
2023-04-15T14:07:57.292Z,3.47
2023-04-15T14:10:23.834Z,3.63
2023-04-15T14:12:50.670Z,3.03
2023-04-15T14:15:17.396Z,2.70
2023-04-15T14:17:44.037Z,3.63
2023-04-15T14:20:10.965Z,2.65
2023-04-15T14:22:37.557Z,3.22
2023-04-15T14:25:04.848Z,2.95
2023-04-15T14:27:31.406Z,3.03
2023-04-15T14:29:59.294Z,3.90
2023-04-15T14:32:26.822Z,3.25
2023-04-15T14:34:53.519Z,3.45
2023-04-15T14:37:20.097Z,3.65
2023-04-15T14:39:46.693Z,3.22
2023-04-15T14:42:13.374Z,4.05
2023-04-15T14:44:41.182Z,3.80
2023-04-15T14:47:07.875Z,4.10
2023-04-15T14:49:34.592Z,4.20
2023-04-15T14:52:01.152Z,4.55
2023-04-15T14:54:28.023Z,3.47
2023-04-15T14:56:54.577Z,6.90
2023-04-15T14:59:21.214Z,5.53
2023-04-15T15:01:48.305Z,10.23
2023-04-15T15:04:15.072Z,3.88
2023-04-15T15:06:43.106Z,3.83
2023-04-15T15:09:09.774Z,3.95
2023-04-15T15:11:36.369Z,3.58
2023-04-15T15:14:03.094Z,3.10
2023-04-15T15:16:31.311Z,3.22
2023-04-15T15:18:57.932Z,3.95
2023-04-15T15:21:24.474Z,3.10
2023-04-15T15:23:51.055Z,3.90
2023-04-15T15:26:19.200Z,5.35
2023-04-15T15:28:46.066Z,2.97
2023-04-15T15:31:12.700Z,2.97
2023-04-15T15:33:39.638Z,4.03
2023-04-15T15:36:06.343Z,3.00
2023-04-15T15:38:32.943Z,3.00
2023-04-15T15:40:59.570Z,3.63
2023-04-15T15:43:26.157Z,3.03
2023-04-15T15:45:55.385Z,3.13
2023-04-15T15:48:23.396Z,2.75
2023-04-15T15:50:49.940Z,2.28
2023-04-15T15:53:20.669Z,2.88
2023-04-15T15:55:48.265Z,3.58
2023-04-15T15:58:15.174Z,2.55
2023-04-15T16:00:41.955Z,2.90
2023-04-15T16:03:08.779Z,3.13
2023-04-15T16:05:36.078Z,4.72
2023-04-15T16:08:02.710Z,4.32
2023-04-15T16:10:29.291Z,4.18
2023-04-15T16:12:55.944Z,2.63
2023-04-15T16:15:25.756Z,3.20
2023-04-15T16:17:52.442Z,3.78
2023-04-15T16:20:19.028Z,3.00
2023-04-15T16:22:45.860Z,3.17
2023-04-15T16:25:12.425Z,4.55
2023-04-15T16:30:09.154Z,5.00
2023-04-15T16:32:36.146Z,4.88
2023-04-15T16:35:03.482Z,3.97
2023-04-15T16:37:31.390Z,3.33
2023-04-15T16:39:57.977Z,5.30
2023-04-15T16:42:24.701Z,4.97
2023-04-15T16:44:51.345Z,3.50
2023-04-15T16:47:17.916Z,4.20
2023-04-15T16:49:44.538Z,5.97
2023-04-15T16:52:11.129Z,3.40
2023-04-15T16:54:41.199Z,8.13
2023-04-15T16:57:08.534Z,4.72
2023-04-15T16:59:35.114Z,5.20
2023-04-15T17:02:01.812Z,4.05
2023-04-15T17:04:28.785Z,4.75
2023-04-15T17:06:55.448Z,4.47
2023-04-15T17:09:22.283Z,4.03
2023-04-15T17:11:48.832Z,3.08
2023-04-15T17:14:15.389Z,2.50
2023-04-15T17:16:43.129Z,3.35
2023-04-15T17:19:09.688Z,2.25
2023-04-15T17:21:36.262Z,2.25
2023-04-15T17:24:02.840Z,2.85
2023-04-15T17:26:29.436Z,2.30
2023-04-15T17:28:56.147Z,2.60
2023-04-15T17:31:23.005Z,2.42
2023-04-15T17:33:57.987Z,2.00
2023-04-15T17:36:34.391Z,2.40
2023-04-15T17:39:01.033Z,2.53
2023-04-15T17:41:27.591Z,2.25
2023-04-15T17:43:54.138Z,2.28
2023-04-15T17:46:20.805Z,2.70
2023-04-15T17:48:47.847Z,3.97
2023-04-15T17:51:15.113Z,2.22
2023-04-15T17:53:42.065Z,2.58
2023-04-15T17:56:08.727Z,2.42
2023-04-15T17:58:35.329Z,2.17
2023-04-15T18:01:01.928Z,3.03
2023-04-15T18:03:28.684Z,2.78
2023-04-15T18:05:55.580Z,2.70
2023-04-15T18:08:22.142Z,1.75
2023-04-15T18:10:48.720Z,2.10
2023-04-15T18:13:15.415Z,1.63
2023-04-15T18:15:42.011Z,2.10
2023-04-15T18:18:08.610Z,2.67
2023-04-15T18:20:35.247Z,3.47
2023-04-15T18:23:02.146Z,3.30
2023-04-15T18:25:30.050Z,2.92
2023-04-15T18:27:57.207Z,4.20
2023-04-15T18:30:23.996Z,5.22
2023-04-15T18:32:50.573Z,6.30
2023-04-15T18:35:17.257Z,3.92
2023-04-15T18:37:43.849Z,3.53
2023-04-15T18:40:10.849Z,4.72
2023-04-15T18:42:37.421Z,3.70
2023-04-15T18:45:04.080Z,3.90
2023-04-15T18:47:30.763Z,3.20
2023-04-15T18:49:58.367Z,2.22
2023-04-15T18:52:24.952Z,2.42
2023-04-15T18:54:51.531Z,2.33
2023-04-15T18:57:23.323Z,2.15
2023-04-15T18:59:57.796Z,2.33
2023-04-15T19:02:24.542Z,1.98
2023-04-15T19:04:51.401Z,2.28
2023-04-15T19:07:18.050Z,2.80
2023-04-15T19:09:44.697Z,2.65
2023-04-15T19:12:11.315Z,2.28
2023-04-15T19:14:37.904Z,2.97
2023-04-15T19:17:04.582Z,2.22
2023-04-15T19:19:31.810Z,2.80
2023-04-15T19:21:59.135Z,2.30
2023-04-15T19:24:25.714Z,3.10
2023-04-15T19:26:52.262Z,3.40
2023-04-15T19:29:18.946Z,2.95
2023-04-15T19:31:45.560Z,4.15
2023-04-15T19:34:12.209Z,2.78
2023-04-15T19:36:38.820Z,2.08
2023-04-15T19:39:06.257Z,2.10
2023-04-15T19:41:33.097Z,2.03
2023-04-15T19:44:00.274Z,1.70
2023-04-15T19:46:26.963Z,2.15
2023-04-15T19:48:54.779Z,1.70
2023-04-15T19:51:21.332Z,1.63
2023-04-15T19:53:49.537Z,1.60
2023-04-15T19:56:16.239Z,1.63
2023-04-15T19:58:46.452Z,1.50
2023-04-15T20:01:13.044Z,1.42
2023-04-15T20:03:39.788Z,1.77
2023-04-15T20:06:06.471Z,1.70
2023-04-15T20:08:33.215Z,1.63
2023-04-15T20:11:01.104Z,0.90
2023-04-15T20:13:27.749Z,1.23
2023-04-15T20:15:54.313Z,1.13
2023-04-15T20:18:20.900Z,1.38
2023-04-15T20:20:47.456Z,1.42
2023-04-15T20:23:14.051Z,0.95
2023-04-15T20:25:41.678Z,0.95
2023-04-15T20:28:08.336Z,1.42
2023-04-15T20:30:34.945Z,1.00
2023-04-15T20:33:01.763Z,1.17
2023-04-15T20:35:30.843Z,1.15
2023-04-15T20:37:57.549Z,1.20
2023-04-15T20:40:24.131Z,1.08
2023-04-15T20:42:50.711Z,1.00
2023-04-15T20:45:17.391Z,0.80
2023-04-15T20:47:43.995Z,1.08
2023-04-15T20:50:11.251Z,1.05
2023-04-15T20:52:38.586Z,1.25
2023-04-15T20:55:07.108Z,1.33
2023-04-15T20:57:33.701Z,1.00
2023-04-15T21:00:00.437Z,1.15
2023-04-15T21:02:27.245Z,1.42
2023-04-15T21:04:54.018Z,1.23
2023-04-15T21:07:20.671Z,1.15
2023-04-15T21:09:47.346Z,1.58
2023-04-15T21:12:13.894Z,0.93
2023-04-15T21:14:40.490Z,1.20
2023-04-15T21:17:10.058Z,1.27
2023-04-15T21:19:37.665Z,1.40
2023-04-15T21:22:04.283Z,1.10
2023-04-15T21:24:30.871Z,1.25
2023-04-15T21:26:57.500Z,1.10
2023-04-15T21:29:24.099Z,1.30
2023-04-15T21:31:50.731Z,1.75
2023-04-15T21:34:17.403Z,1.55
2023-04-15T21:36:43.962Z,1.90
2023-04-15T21:39:10.735Z,2.05
2023-04-15T21:41:37.569Z,2.08
2023-04-15T21:44:04.303Z,1.60
2023-04-15T21:46:32.860Z,1.52
2023-04-15T21:49:01.602Z,1.43
2023-04-15T21:51:28.219Z,1.63
2023-04-15T21:53:54.900Z,2.03
2023-04-15T21:56:23.988Z,1.70
2023-04-15T21:58:51.077Z,1.33
2023-04-15T22:01:17.702Z,1.38
2023-04-15T22:03:44.457Z,2.10
2023-04-15T22:06:13.502Z,2.45
2023-04-15T22:08:55.006Z,1.95
2023-04-15T22:11:30.236Z,2.20
2023-04-15T22:13:57.735Z,2.13
2023-04-15T22:16:25.511Z,1.77
2023-04-15T22:18:52.283Z,2.00
2023-04-15T22:21:18.985Z,1.55
2023-04-15T22:23:47.239Z,2.05
2023-04-15T22:26:13.811Z,1.40
2023-04-15T22:28:40.394Z,1.77
2023-04-15T22:31:06.982Z,1.50
2023-04-15T22:33:33.816Z,1.30
2023-04-15T22:36:00.382Z,1.80
2023-04-15T22:38:26.991Z,1.20
2023-04-15T22:40:54.230Z,1.40
2023-04-15T22:43:20.834Z,0.85
2023-04-15T22:45:50.789Z,1.00
2023-04-15T22:48:18.152Z,0.50
2023-04-15T22:50:44.771Z,0.93
2023-04-15T22:53:11.373Z,0.98
2023-04-15T22:55:37.943Z,0.82
2023-04-15T22:58:04.531Z,0.70
2023-04-15T23:00:31.123Z,0.73
2023-04-15T23:02:57.940Z,0.90
2023-04-15T23:05:24.885Z,0.90
2023-04-15T23:07:51.545Z,0.90
2023-04-15T23:10:18.121Z,1.45
2023-04-15T23:12:44.710Z,1.33
2023-04-15T23:15:11.961Z,1.45
2023-04-15T23:17:38.968Z,1.65
2023-04-15T23:20:06.404Z,1.15
2023-04-15T23:22:32.975Z,0.98
2023-04-15T23:24:59.772Z,0.75
2023-04-15T23:27:26.480Z,0.95
2023-04-15T23:29:53.061Z,0.65
2023-04-15T23:32:19.674Z,0.80
2023-04-15T23:34:46.284Z,0.95
2023-04-15T23:37:12.854Z,0.88
2023-04-15T23:39:39.417Z,1.40
2023-04-15T23:42:05.998Z,0.77
2023-04-15T23:44:32.617Z,0.77
2023-04-15T23:46:59.213Z,0.88
2023-04-15T23:49:26.088Z,1.00
2023-04-15T23:51:52.631Z,1.00
2023-04-15T23:54:19.180Z,1.02
2023-04-15T23:56:46.144Z,0.70
2023-04-15T23:59:12.740Z,0.88
